sensor_id;sensor_type;location;lat;lon;timestamp;temperature;humidity
67974;DHT22;54756;51.140;6.952;2024-03-07T00:01:54;5.90;99.90
67974;DHT22;54756;51.140;6.952;2024-03-07T00:03:55;5.90;99.90
67974;DHT22;54756;51.140;6.952;2024-03-07T00:05:56;5.80;99.90
67974;DHT22;54756;51.140;6.952;2024-03-07T00:07:57;5.80;99.90
67974;DHT22;54756;51.140;6.952;2024-03-07T00:09:58;5.80;99.90
67974;DHT22;54756;51.140;6.952;2024-03-07T00:11:59;5.80;99.90
67974;DHT22;54756;51.140;6.952;2024-03-07T00:13:59;5.70;99.90
67974;DHT22;54756;51.140;6.952;2024-03-07T00:16:00;5.70;99.90
67974;DHT22;54756;51.140;6.952;2024-03-07T00:18:02;5.70;99.90
67974;DHT22;54756;51.140;6.952;2024-03-07T00:20:03;5.70;99.90
67974;DHT22;54756;51.140;6.952;2024-03-07T00:22:04;5.70;99.90
67974;DHT22;54756;51.140;6.952;2024-03-07T00:24:05;5.70;99.90
67974;DHT22;54756;51.140;6.952;2024-03-07T00:26:06;5.70;99.90
67974;DHT22;54756;51.140;6.952;2024-03-07T00:28:06;5.70;99.90
67974;DHT22;54756;51.140;6.952;2024-03-07T00:30:07;5.60;99.90
67974;DHT22;54756;51.140;6.952;2024-03-07T00:32:09;5.60;99.90
67974;DHT22;54756;51.140;6.952;2024-03-07T00:34:10;5.60;99.90
67974;DHT22;54756;51.140;6.952;2024-03-07T00:36:11;5.60;99.90
67974;DHT22;54756;51.140;6.952;2024-03-07T00:38:12;5.60;99.90
67974;DHT22;54756;51.140;6.952;2024-03-07T00:40:13;5.50;99.90
67974;DHT22;54756;51.140;6.952;2024-03-07T00:42:14;5.50;99.90
67974;DHT22;54756;51.140;6.952;2024-03-07T00:44:14;5.50;99.90
67974;DHT22;54756;51.140;6.952;2024-03-07T00:46:15;5.50;99.90
67974;DHT22;54756;51.140;6.952;2024-03-07T00:48:16;5.40;99.90
67974;DHT22;54756;51.140;6.952;2024-03-07T00:50:17;5.40;99.90
67974;DHT22;54756;51.140;6.952;2024-03-07T00:52:17;5.40;99.90
67974;DHT22;54756;51.140;6.952;2024-03-07T00:54:18;5.30;99.90
67974;DHT22;54756;51.140;6.952;2024-03-07T00:56:18;5.30;99.90
67974;DHT22;54756;51.140;6.952;2024-03-07T00:58:19;5.30;99.90
67974;DHT22;54756;51.140;6.952;2024-03-07T01:00:20;5.30;99.90
67974;DHT22;54756;51.140;6.952;2024-03-07T01:02:21;5.30;99.90
67974;DHT22;54756;51.140;6.952;2024-03-07T01:04:22;5.30;99.90
67974;DHT22;54756;51.140;6.952;2024-03-07T01:06:23;5.20;99.90
67974;DHT22;54756;51.140;6.952;2024-03-07T01:08:23;5.20;99.90
67974;DHT22;54756;51.140;6.952;2024-03-07T01:10:24;5.20;99.90
67974;DHT22;54756;51.140;6.952;2024-03-07T01:12:24;5.20;99.90
67974;DHT22;54756;51.140;6.952;2024-03-07T01:14:30;5.10;99.90
67974;DHT22;54756;51.140;6.952;2024-03-07T01:16:31;5.10;99.90
67974;DHT22;54756;51.140;6.952;2024-03-07T01:18:32;5.10;99.90
67974;DHT22;54756;51.140;6.952;2024-03-07T01:20:33;5.00;99.90
67974;DHT22;54756;51.140;6.952;2024-03-07T01:22:34;5.10;99.90
67974;DHT22;54756;51.140;6.952;2024-03-07T01:24:35;5.10;99.90
67974;DHT22;54756;51.140;6.952;2024-03-07T01:26:35;5.00;99.90
67974;DHT22;54756;51.140;6.952;2024-03-07T01:28:36;5.00;99.90
67974;DHT22;54756;51.140;6.952;2024-03-07T01:30:37;5.00;99.90
67974;DHT22;54756;51.140;6.952;2024-03-07T01:32:37;5.00;99.90
67974;DHT22;54756;51.140;6.952;2024-03-07T01:34:38;4.90;99.90
67974;DHT22;54756;51.140;6.952;2024-03-07T01:36:38;4.90;99.90
67974;DHT22;54756;51.140;6.952;2024-03-07T01:38:39;4.90;99.90
67974;DHT22;54756;51.140;6.952;2024-03-07T01:40:43;4.90;99.90
67974;DHT22;54756;51.140;6.952;2024-03-07T01:42:47;4.90;99.90
67974;DHT22;54756;51.140;6.952;2024-03-07T01:44:48;4.90;99.90
67974;DHT22;54756;51.140;6.952;2024-03-07T01:46:49;4.90;99.90
67974;DHT22;54756;51.140;6.952;2024-03-07T01:48:51;4.80;99.90
67974;DHT22;54756;51.140;6.952;2024-03-07T01:50:51;4.80;99.90
67974;DHT22;54756;51.140;6.952;2024-03-07T01:52:52;4.80;99.90
67974;DHT22;54756;51.140;6.952;2024-03-07T01:54:56;4.70;99.90
67974;DHT22;54756;51.140;6.952;2024-03-07T01:56:57;4.70;99.90
67974;DHT22;54756;51.140;6.952;2024-03-07T01:59:01;4.70;99.90
67974;DHT22;54756;51.140;6.952;2024-03-07T02:01:02;4.60;99.90
67974;DHT22;54756;51.140;6.952;2024-03-07T02:03:02;4.70;99.90
67974;DHT22;54756;51.140;6.952;2024-03-07T02:05:03;4.70;99.90
67974;DHT22;54756;51.140;6.952;2024-03-07T02:07:04;4.60;99.90
67974;DHT22;54756;51.140;6.952;2024-03-07T02:09:05;4.60;99.90
67974;DHT22;54756;51.140;6.952;2024-03-07T02:11:06;4.60;99.90
67974;DHT22;54756;51.140;6.952;2024-03-07T02:13:06;4.60;99.90
67974;DHT22;54756;51.140;6.952;2024-03-07T02:15:07;4.60;99.90
67974;DHT22;54756;51.140;6.952;2024-03-07T02:17:08;4.50;99.90
67974;DHT22;54756;51.140;6.952;2024-03-07T02:19:13;4.50;99.90
67974;DHT22;54756;51.140;6.952;2024-03-07T02:21:14;4.50;99.90
67974;DHT22;54756;51.140;6.952;2024-03-07T02:23:14;4.50;99.90
67974;DHT22;54756;51.140;6.952;2024-03-07T02:25:15;4.50;99.90
67974;DHT22;54756;51.140;6.952;2024-03-07T02:27:16;4.50;99.90
67974;DHT22;54756;51.140;6.952;2024-03-07T02:29:16;4.50;99.90
67974;DHT22;54756;51.140;6.952;2024-03-07T02:31:17;4.50;99.90
67974;DHT22;54756;51.140;6.952;2024-03-07T02:33:19;4.50;99.90
67974;DHT22;54756;51.140;6.952;2024-03-07T02:35:19;4.40;99.90
67974;DHT22;54756;51.140;6.952;2024-03-07T02:37:20;4.40;99.90
67974;DHT22;54756;51.140;6.952;2024-03-07T02:39:21;4.40;99.90
67974;DHT22;54756;51.140;6.952;2024-03-07T02:41:21;4.40;99.90
67974;DHT22;54756;51.140;6.952;2024-03-07T02:43:22;4.40;99.90
67974;DHT22;54756;51.140;6.952;2024-03-07T02:45:22;4.40;99.90
67974;DHT22;54756;51.140;6.952;2024-03-07T02:47:23;4.40;99.90
67974;DHT22;54756;51.140;6.952;2024-03-07T02:49:24;4.40;99.90
67974;DHT22;54756;51.140;6.952;2024-03-07T02:51:24;4.40;99.90
67974;DHT22;54756;51.140;6.952;2024-03-07T02:53:25;4.40;99.90
67974;DHT22;54756;51.140;6.952;2024-03-07T02:55:25;4.40;99.90
67974;DHT22;54756;51.140;6.952;2024-03-07T02:57:27;4.30;99.90
67974;DHT22;54756;51.140;6.952;2024-03-07T02:59:28;4.30;99.90
67974;DHT22;54756;51.140;6.952;2024-03-07T03:01:28;4.30;99.90
67974;DHT22;54756;51.140;6.952;2024-03-07T03:03:29;4.30;99.90
67974;DHT22;54756;51.140;6.952;2024-03-07T03:05:33;4.30;99.90
67974;DHT22;54756;51.140;6.952;2024-03-07T03:07:33;4.30;99.90
67974;DHT22;54756;51.140;6.952;2024-03-07T03:09:34;4.30;99.90
67974;DHT22;54756;51.140;6.952;2024-03-07T03:11:34;4.30;99.90
67974;DHT22;54756;51.140;6.952;2024-03-07T03:13:37;4.30;99.90
67974;DHT22;54756;51.140;6.952;2024-03-07T03:15:38;4.30;99.90
67974;DHT22;54756;51.140;6.952;2024-03-07T03:17:39;4.30;99.90
67974;DHT22;54756;51.140;6.952;2024-03-07T03:19:39;4.30;99.90
67974;DHT22;54756;51.140;6.952;2024-03-07T03:21:40;4.30;99.90
67974;DHT22;54756;51.140;6.952;2024-03-07T03:23:41;4.20;99.90
67974;DHT22;54756;51.140;6.952;2024-03-07T03:25:42;4.20;99.90
67974;DHT22;54756;51.140;6.952;2024-03-07T03:27:43;4.20;99.90
67974;DHT22;54756;51.140;6.952;2024-03-07T03:29:43;4.20;99.90
67974;DHT22;54756;51.140;6.952;2024-03-07T03:31:45;4.20;99.90
67974;DHT22;54756;51.140;6.952;2024-03-07T03:33:45;4.30;99.90
67974;DHT22;54756;51.140;6.952;2024-03-07T03:35:46;4.30;99.90
67974;DHT22;54756;51.140;6.952;2024-03-07T03:37:47;4.40;99.90
67974;DHT22;54756;51.140;6.952;2024-03-07T03:39:47;4.30;99.90
67974;DHT22;54756;51.140;6.952;2024-03-07T03:41:49;4.30;99.90
67974;DHT22;54756;51.140;6.952;2024-03-07T03:43:50;4.30;99.90
67974;DHT22;54756;51.140;6.952;2024-03-07T03:45:50;4.30;99.90
67974;DHT22;54756;51.140;6.952;2024-03-07T03:47:51;4.30;99.90
67974;DHT22;54756;51.140;6.952;2024-03-07T03:49:52;4.20;99.90
67974;DHT22;54756;51.140;6.952;2024-03-07T03:51:52;4.30;99.90
67974;DHT22;54756;51.140;6.952;2024-03-07T03:53:53;4.20;99.90
67974;DHT22;54756;51.140;6.952;2024-03-07T03:55:54;4.20;99.90
67974;DHT22;54756;51.140;6.952;2024-03-07T03:57:54;4.20;99.90
67974;DHT22;54756;51.140;6.952;2024-03-07T03:59:56;4.20;99.90
67974;DHT22;54756;51.140;6.952;2024-03-07T04:01:56;4.10;99.90
67974;DHT22;54756;51.140;6.952;2024-03-07T04:03:57;4.10;99.90
67974;DHT22;54756;51.140;6.952;2024-03-07T04:05:58;4.10;99.90
67974;DHT22;54756;51.140;6.952;2024-03-07T04:07:59;4.10;99.90
67974;DHT22;54756;51.140;6.952;2024-03-07T04:09:59;4.10;99.90
67974;DHT22;54756;51.140;6.952;2024-03-07T04:12:00;4.00;99.90
67974;DHT22;54756;51.140;6.952;2024-03-07T04:14:00;4.00;99.90
67974;DHT22;54756;51.140;6.952;2024-03-07T04:16:01;4.00;99.90
67974;DHT22;54756;51.140;6.952;2024-03-07T04:18:03;3.90;99.90
67974;DHT22;54756;51.140;6.952;2024-03-07T04:20:04;4.00;99.90
67974;DHT22;54756;51.140;6.952;2024-03-07T04:22:10;3.90;99.90
67974;DHT22;54756;51.140;6.952;2024-03-07T04:24:11;3.90;99.90
67974;DHT22;54756;51.140;6.952;2024-03-07T04:26:12;3.90;99.90
67974;DHT22;54756;51.140;6.952;2024-03-07T04:28:14;3.90;99.90
67974;DHT22;54756;51.140;6.952;2024-03-07T04:30:14;3.80;99.90
67974;DHT22;54756;51.140;6.952;2024-03-07T04:32:17;3.80;99.90
67974;DHT22;54756;51.140;6.952;2024-03-07T04:34:17;3.80;99.90
67974;DHT22;54756;51.140;6.952;2024-03-07T04:36:18;3.80;99.90
67974;DHT22;54756;51.140;6.952;2024-03-07T04:38:18;3.80;99.90
67974;DHT22;54756;51.140;6.952;2024-03-07T04:40:19;3.70;99.90
67974;DHT22;54756;51.140;6.952;2024-03-07T04:42:19;3.70;99.90
67974;DHT22;54756;51.140;6.952;2024-03-07T04:44:20;3.70;99.90
67974;DHT22;54756;51.140;6.952;2024-03-07T04:46:22;3.70;99.90
67974;DHT22;54756;51.140;6.952;2024-03-07T04:48:23;3.60;99.90
67974;DHT22;54756;51.140;6.952;2024-03-07T04:50:23;3.70;99.90
67974;DHT22;54756;51.140;6.952;2024-03-07T04:52:24;3.60;99.90
67974;DHT22;54756;51.140;6.952;2024-03-07T04:54:25;3.60;99.90
67974;DHT22;54756;51.140;6.952;2024-03-07T04:56:26;3.60;99.90
67974;DHT22;54756;51.140;6.952;2024-03-07T04:58:27;3.60;99.90
67974;DHT22;54756;51.140;6.952;2024-03-07T05:00:27;3.70;99.90
67974;DHT22;54756;51.140;6.952;2024-03-07T05:02:29;3.70;99.90
67974;DHT22;54756;51.140;6.952;2024-03-07T05:04:31;3.70;99.90
67974;DHT22;54756;51.140;6.952;2024-03-07T05:06:33;3.70;99.90
67974;DHT22;54756;51.140;6.952;2024-03-07T05:08:34;3.70;99.90
67974;DHT22;54756;51.140;6.952;2024-03-07T05:10:34;3.70;99.90
67974;DHT22;54756;51.140;6.952;2024-03-07T05:12:36;3.70;99.90
67974;DHT22;54756;51.140;6.952;2024-03-07T05:14:39;3.70;99.90
67974;DHT22;54756;51.140;6.952;2024-03-07T05:16:40;3.60;99.90
67974;DHT22;54756;51.140;6.952;2024-03-07T05:18:43;3.60;99.90
67974;DHT22;54756;51.140;6.952;2024-03-07T05:20:44;3.60;99.90
67974;DHT22;54756;51.140;6.952;2024-03-07T05:22:44;3.60;99.90
67974;DHT22;54756;51.140;6.952;2024-03-07T05:24:50;3.50;99.90
67974;DHT22;54756;51.140;6.952;2024-03-07T05:26:51;3.50;99.90
67974;DHT22;54756;51.140;6.952;2024-03-07T05:28:53;3.50;99.90
67974;DHT22;54756;51.140;6.952;2024-03-07T05:30:56;3.50;99.90
67974;DHT22;54756;51.140;6.952;2024-03-07T05:32:57;3.50;99.90
67974;DHT22;54756;51.140;6.952;2024-03-07T05:34:58;3.40;99.90
67974;DHT22;54756;51.140;6.952;2024-03-07T05:36:59;3.40;99.90
67974;DHT22;54756;51.140;6.952;2024-03-07T05:39:00;3.40;99.90
67974;DHT22;54756;51.140;6.952;2024-03-07T05:41:01;3.40;99.90
67974;DHT22;54756;51.140;6.952;2024-03-07T05:43:02;3.40;99.90
67974;DHT22;54756;51.140;6.952;2024-03-07T05:45:02;3.30;99.90
67974;DHT22;54756;51.140;6.952;2024-03-07T05:47:03;3.30;99.90
67974;DHT22;54756;51.140;6.952;2024-03-07T05:49:04;3.30;99.90
67974;DHT22;54756;51.140;6.952;2024-03-07T05:51:05;3.30;99.90
67974;DHT22;54756;51.140;6.952;2024-03-07T05:53:05;3.30;99.90
67974;DHT22;54756;51.140;6.952;2024-03-07T05:55:08;3.30;99.90
67974;DHT22;54756;51.140;6.952;2024-03-07T05:57:08;3.20;99.90
67974;DHT22;54756;51.140;6.952;2024-03-07T05:59:09;3.20;99.90
67974;DHT22;54756;51.140;6.952;2024-03-07T06:01:09;3.20;99.90
67974;DHT22;54756;51.140;6.952;2024-03-07T06:03:10;3.20;99.90
67974;DHT22;54756;51.140;6.952;2024-03-07T06:05:13;3.20;99.90
67974;DHT22;54756;51.140;6.952;2024-03-07T06:07:15;3.10;99.90
67974;DHT22;54756;51.140;6.952;2024-03-07T06:09:16;3.10;99.90
67974;DHT22;54756;51.140;6.952;2024-03-07T06:11:21;3.10;99.90
67974;DHT22;54756;51.140;6.952;2024-03-07T06:13:22;3.10;99.90
67974;DHT22;54756;51.140;6.952;2024-03-07T06:15:22;3.10;99.90
67974;DHT22;54756;51.140;6.952;2024-03-07T06:17:23;3.10;99.90
67974;DHT22;54756;51.140;6.952;2024-03-07T06:19:23;3.10;99.90
67974;DHT22;54756;51.140;6.952;2024-03-07T06:21:24;3.10;99.90
67974;DHT22;54756;51.140;6.952;2024-03-07T06:23:25;3.00;99.90
67974;DHT22;54756;51.140;6.952;2024-03-07T06:25:28;3.00;99.90
67974;DHT22;54756;51.140;6.952;2024-03-07T06:27:47;3.00;99.90
67974;DHT22;54756;51.140;6.952;2024-03-07T06:29:52;3.00;99.90
67974;DHT22;54756;51.140;6.952;2024-03-07T06:31:53;3.10;99.90
67974;DHT22;54756;51.140;6.952;2024-03-07T06:33:54;3.00;99.90
67974;DHT22;54756;51.140;6.952;2024-03-07T06:35:55;3.10;99.90
67974;DHT22;54756;51.140;6.952;2024-03-07T06:37:56;3.10;99.90
67974;DHT22;54756;51.140;6.952;2024-03-07T06:39:56;3.10;99.90
67974;DHT22;54756;51.140;6.952;2024-03-07T06:41:57;3.10;99.90
67974;DHT22;54756;51.140;6.952;2024-03-07T06:43:57;3.20;99.90
67974;DHT22;54756;51.140;6.952;2024-03-07T06:45:58;3.20;99.90
67974;DHT22;54756;51.140;6.952;2024-03-07T06:47:59;3.30;99.90
67974;DHT22;54756;51.140;6.952;2024-03-07T06:50:00;3.30;99.90
67974;DHT22;54756;51.140;6.952;2024-03-07T06:52:00;3.30;99.90
67974;DHT22;54756;51.140;6.952;2024-03-07T06:54:01;3.40;99.90
67974;DHT22;54756;51.140;6.952;2024-03-07T06:56:01;3.40;99.90
67974;DHT22;54756;51.140;6.952;2024-03-07T06:58:02;3.40;99.90
67974;DHT22;54756;51.140;6.952;2024-03-07T07:00:06;3.50;99.90
67974;DHT22;54756;51.140;6.952;2024-03-07T07:02:11;3.50;99.90
67974;DHT22;54756;51.140;6.952;2024-03-07T07:04:11;3.60;99.90
67974;DHT22;54756;51.140;6.952;2024-03-07T07:06:15;3.60;99.90
67974;DHT22;54756;51.140;6.952;2024-03-07T07:08:16;3.70;99.90
67974;DHT22;54756;51.140;6.952;2024-03-07T07:10:17;3.80;99.90
67974;DHT22;54756;51.140;6.952;2024-03-07T07:12:23;3.90;99.90
67974;DHT22;54756;51.140;6.952;2024-03-07T07:14:24;3.90;99.90
67974;DHT22;54756;51.140;6.952;2024-03-07T07:16:24;4.00;99.90
67974;DHT22;54756;51.140;6.952;2024-03-07T07:18:25;4.00;99.90
67974;DHT22;54756;51.140;6.952;2024-03-07T07:20:26;4.10;99.90
67974;DHT22;54756;51.140;6.952;2024-03-07T07:22:26;4.10;99.90
67974;DHT22;54756;51.140;6.952;2024-03-07T07:24:27;4.20;99.90
67974;DHT22;54756;51.140;6.952;2024-03-07T07:26:29;4.30;99.90
67974;DHT22;54756;51.140;6.952;2024-03-07T07:28:30;4.30;99.90
67974;DHT22;54756;51.140;6.952;2024-03-07T07:30:30;4.30;99.90
67974;DHT22;54756;51.140;6.952;2024-03-07T07:32:32;4.30;99.90
67974;DHT22;54756;51.140;6.952;2024-03-07T07:34:32;4.40;99.90
67974;DHT22;54756;51.140;6.952;2024-03-07T07:36:33;4.40;99.90
67974;DHT22;54756;51.140;6.952;2024-03-07T07:38:34;4.40;99.90
67974;DHT22;54756;51.140;6.952;2024-03-07T07:40:34;4.50;99.90
67974;DHT22;54756;51.140;6.952;2024-03-07T07:42:36;4.50;99.90
67974;DHT22;54756;51.140;6.952;2024-03-07T07:44:39;4.50;99.90
67974;DHT22;54756;51.140;6.952;2024-03-07T07:46:40;4.60;99.90
67974;DHT22;54756;51.140;6.952;2024-03-07T07:48:44;4.60;99.90
67974;DHT22;54756;51.140;6.952;2024-03-07T07:50:44;4.70;99.90
67974;DHT22;54756;51.140;6.952;2024-03-07T07:54:48;4.70;99.90
67974;DHT22;54756;51.140;6.952;2024-03-07T07:56:48;4.80;99.90
67974;DHT22;54756;51.140;6.952;2024-03-07T07:58:49;4.80;99.90
67974;DHT22;54756;51.140;6.952;2024-03-07T08:00:49;4.80;99.90
67974;DHT22;54756;51.140;6.952;2024-03-07T08:02:55;4.90;99.90
67974;DHT22;54756;51.140;6.952;2024-03-07T08:04:56;4.90;99.90
67974;DHT22;54756;51.140;6.952;2024-03-07T08:06:56;4.90;99.90
67974;DHT22;54756;51.140;6.952;2024-03-07T08:08:57;5.00;99.90
67974;DHT22;54756;51.140;6.952;2024-03-07T08:10:57;5.00;99.90
67974;DHT22;54756;51.140;6.952;2024-03-07T08:13:01;5.00;99.90
67974;DHT22;54756;51.140;6.952;2024-03-07T08:15:06;5.10;99.90
67974;DHT22;54756;51.140;6.952;2024-03-07T08:17:06;5.10;99.90
67974;DHT22;54756;51.140;6.952;2024-03-07T08:19:07;5.20;99.90
67974;DHT22;54756;51.140;6.952;2024-03-07T08:21:09;5.20;99.90
67974;DHT22;54756;51.140;6.952;2024-03-07T08:23:12;5.20;99.90
67974;DHT22;54756;51.140;6.952;2024-03-07T08:25:14;5.30;99.90
67974;DHT22;54756;51.140;6.952;2024-03-07T08:27:15;5.30;99.90
67974;DHT22;54756;51.140;6.952;2024-03-07T08:29:15;5.40;99.90
67974;DHT22;54756;51.140;6.952;2024-03-07T08:31:16;5.40;99.90
67974;DHT22;54756;51.140;6.952;2024-03-07T08:33:17;5.50;99.90
67974;DHT22;54756;51.140;6.952;2024-03-07T08:35:22;5.50;99.90
67974;DHT22;54756;51.140;6.952;2024-03-07T08:37:23;5.50;99.90
67974;DHT22;54756;51.140;6.952;2024-03-07T08:39:23;5.50;99.90
67974;DHT22;54756;51.140;6.952;2024-03-07T08:41:24;5.60;99.90
67974;DHT22;54756;51.140;6.952;2024-03-07T08:43:25;5.70;99.90
67974;DHT22;54756;51.140;6.952;2024-03-07T08:45:28;5.70;99.90
67974;DHT22;54756;51.140;6.952;2024-03-07T08:47:29;5.70;99.90
67974;DHT22;54756;51.140;6.952;2024-03-07T08:49:31;5.80;99.90
67974;DHT22;54756;51.140;6.952;2024-03-07T08:51:31;5.80;99.90
67974;DHT22;54756;51.140;6.952;2024-03-07T08:53:32;5.90;99.90
67974;DHT22;54756;51.140;6.952;2024-03-07T08:55:34;5.90;99.90
67974;DHT22;54756;51.140;6.952;2024-03-07T08:57:36;6.00;99.90
67974;DHT22;54756;51.140;6.952;2024-03-07T08:59:37;6.00;99.90
67974;DHT22;54756;51.140;6.952;2024-03-07T09:01:37;6.00;99.90
67974;DHT22;54756;51.140;6.952;2024-03-07T09:03:38;6.10;99.90
67974;DHT22;54756;51.140;6.952;2024-03-07T09:05:38;6.20;99.90
67974;DHT22;54756;51.140;6.952;2024-03-07T09:07:39;6.20;99.90
67974;DHT22;54756;51.140;6.952;2024-03-07T09:09:40;6.20;99.90
67974;DHT22;54756;51.140;6.952;2024-03-07T09:11:40;6.20;99.90
67974;DHT22;54756;51.140;6.952;2024-03-07T09:13:42;6.30;99.90
67974;DHT22;54756;51.140;6.952;2024-03-07T09:15:43;6.30;99.90
67974;DHT22;54756;51.140;6.952;2024-03-07T09:17:43;6.40;99.90
67974;DHT22;54756;51.140;6.952;2024-03-07T09:19:47;6.40;99.90
67974;DHT22;54756;51.140;6.952;2024-03-07T09:21:48;6.40;99.90
67974;DHT22;54756;51.140;6.952;2024-03-07T09:23:50;6.40;99.90
67974;DHT22;54756;51.140;6.952;2024-03-07T09:25:51;6.50;99.90
67974;DHT22;54756;51.140;6.952;2024-03-07T09:27:52;6.50;99.90
67974;DHT22;54756;51.140;6.952;2024-03-07T09:29:52;6.60;99.90
67974;DHT22;54756;51.140;6.952;2024-03-07T09:31:53;6.60;99.90
67974;DHT22;54756;51.140;6.952;2024-03-07T09:33:54;6.60;99.90
67974;DHT22;54756;51.140;6.952;2024-03-07T09:35:54;6.70;99.90
67974;DHT22;54756;51.140;6.952;2024-03-07T09:37:55;6.70;99.90
67974;DHT22;54756;51.140;6.952;2024-03-07T09:39:56;6.70;99.90
67974;DHT22;54756;51.140;6.952;2024-03-07T09:41:57;6.80;99.90
67974;DHT22;54756;51.140;6.952;2024-03-07T09:43:58;6.90;99.90
67974;DHT22;54756;51.140;6.952;2024-03-07T09:46:02;6.90;99.90
67974;DHT22;54756;51.140;6.952;2024-03-07T09:48:03;7.00;99.90
67974;DHT22;54756;51.140;6.952;2024-03-07T09:50:04;7.00;99.90
67974;DHT22;54756;51.140;6.952;2024-03-07T09:52:09;7.00;99.90
67974;DHT22;54756;51.140;6.952;2024-03-07T09:54:12;7.10;99.90
67974;DHT22;54756;51.140;6.952;2024-03-07T09:56:17;7.10;99.90
67974;DHT22;54756;51.140;6.952;2024-03-07T09:58:20;7.10;99.90
67974;DHT22;54756;51.140;6.952;2024-03-07T10:00:22;7.10;99.90
67974;DHT22;54756;51.140;6.952;2024-03-07T10:02:27;7.20;99.90
67974;DHT22;54756;51.140;6.952;2024-03-07T10:04:48;7.20;99.90
67974;DHT22;54756;51.140;6.952;2024-03-07T10:06:49;7.20;99.90
67974;DHT22;54756;51.140;6.952;2024-03-07T10:08:51;7.30;99.90
67974;DHT22;54756;51.140;6.952;2024-03-07T10:10:52;7.30;99.90
67974;DHT22;54756;51.140;6.952;2024-03-07T10:12:53;7.30;99.90
67974;DHT22;54756;51.140;6.952;2024-03-07T10:14:56;7.30;99.90
67974;DHT22;54756;51.140;6.952;2024-03-07T10:16:59;7.40;99.90
67974;DHT22;54756;51.140;6.952;2024-03-07T10:19:04;7.40;99.90
67974;DHT22;54756;51.140;6.952;2024-03-07T10:21:05;7.40;99.90
67974;DHT22;54756;51.140;6.952;2024-03-07T10:23:05;7.40;99.90
67974;DHT22;54756;51.140;6.952;2024-03-07T10:25:08;7.40;99.90
67974;DHT22;54756;51.140;6.952;2024-03-07T10:27:09;7.40;99.90
67974;DHT22;54756;51.140;6.952;2024-03-07T10:29:10;7.40;99.90
67974;DHT22;54756;51.140;6.952;2024-03-07T10:31:10;7.50;99.90
67974;DHT22;54756;51.140;6.952;2024-03-07T10:33:12;7.50;99.90
67974;DHT22;54756;51.140;6.952;2024-03-07T10:35:13;7.50;99.90
67974;DHT22;54756;51.140;6.952;2024-03-07T10:37:15;7.50;99.90
67974;DHT22;54756;51.140;6.952;2024-03-07T10:39:21;7.50;99.90
67974;DHT22;54756;51.140;6.952;2024-03-07T10:41:27;7.60;99.90
67974;DHT22;54756;51.140;6.952;2024-03-07T10:43:36;7.60;99.90
67974;DHT22;54756;51.140;6.952;2024-03-07T10:45:45;7.60;99.90
67974;DHT22;54756;51.140;6.952;2024-03-07T10:47:54;7.60;99.90
67974;DHT22;54756;51.140;6.952;2024-03-07T10:50:21;7.60;99.90
67974;DHT22;54756;51.140;6.952;2024-03-07T10:52:49;7.60;99.90
67974;DHT22;54756;51.140;6.952;2024-03-07T10:55:08;7.70;99.90
67974;DHT22;54756;51.140;6.952;2024-03-07T10:57:31;7.80;99.90
67974;DHT22;54756;51.140;6.952;2024-03-07T10:59:38;7.70;99.90
67974;DHT22;54756;51.140;6.952;2024-03-07T11:01:47;7.80;99.90
67974;DHT22;54756;51.140;6.952;2024-03-07T11:03:50;7.90;99.90
67974;DHT22;54756;51.140;6.952;2024-03-07T11:05:52;7.80;99.90
67974;DHT22;54756;51.140;6.952;2024-03-07T11:07:53;7.90;99.90
67974;DHT22;54756;51.140;6.952;2024-03-07T11:09:55;7.90;99.90
67974;DHT22;54756;51.140;6.952;2024-03-07T11:11:57;7.90;99.90
67974;DHT22;54756;51.140;6.952;2024-03-07T11:13:58;8.00;99.90
67974;DHT22;54756;51.140;6.952;2024-03-07T11:16:00;8.00;99.90
67974;DHT22;54756;51.140;6.952;2024-03-07T11:18:01;8.10;99.90
67974;DHT22;54756;51.140;6.952;2024-03-07T11:20:24;8.10;99.90
67974;DHT22;54756;51.140;6.952;2024-03-07T11:22:30;8.10;99.90
67974;DHT22;54756;51.140;6.952;2024-03-07T11:24:33;8.20;99.90
67974;DHT22;54756;51.140;6.952;2024-03-07T11:26:33;8.20;99.90
67974;DHT22;54756;51.140;6.952;2024-03-07T11:28:38;8.20;99.90
67974;DHT22;54756;51.140;6.952;2024-03-07T11:30:39;8.30;99.90
67974;DHT22;54756;51.140;6.952;2024-03-07T11:32:41;8.30;99.90
67974;DHT22;54756;51.140;6.952;2024-03-07T11:34:45;8.40;99.90
67974;DHT22;54756;51.140;6.952;2024-03-07T11:36:48;8.40;99.90
67974;DHT22;54756;51.140;6.952;2024-03-07T11:38:55;8.50;99.90
67974;DHT22;54756;51.140;6.952;2024-03-07T11:40:59;8.60;99.90
67974;DHT22;54756;51.140;6.952;2024-03-07T11:43:02;8.60;99.90
67974;DHT22;54756;51.140;6.952;2024-03-07T11:45:07;8.60;99.90
67974;DHT22;54756;51.140;6.952;2024-03-07T11:47:07;8.70;99.90
67974;DHT22;54756;51.140;6.952;2024-03-07T11:49:13;8.70;99.90
67974;DHT22;54756;51.140;6.952;2024-03-07T11:51:18;8.70;99.90
67974;DHT22;54756;51.140;6.952;2024-03-07T11:53:21;8.60;99.90
67974;DHT22;54756;51.140;6.952;2024-03-07T11:55:22;8.70;99.90
67974;DHT22;54756;51.140;6.952;2024-03-07T11:57:23;8.60;99.90
67974;DHT22;54756;51.140;6.952;2024-03-07T11:59:32;8.70;99.90
67974;DHT22;54756;51.140;6.952;2024-03-07T12:01:37;8.70;99.90
67974;DHT22;54756;51.140;6.952;2024-03-07T12:03:38;8.70;99.90
67974;DHT22;54756;51.140;6.952;2024-03-07T12:05:43;8.70;99.90
67974;DHT22;54756;51.140;6.952;2024-03-07T12:07:44;8.70;99.90
67974;DHT22;54756;51.140;6.952;2024-03-07T12:09:45;8.70;99.90
67974;DHT22;54756;51.140;6.952;2024-03-07T12:11:50;8.70;99.90
67974;DHT22;54756;51.140;6.952;2024-03-07T12:13:53;8.80;99.90
67974;DHT22;54756;51.140;6.952;2024-03-07T12:15:53;8.80;99.90
67974;DHT22;54756;51.140;6.952;2024-03-07T12:17:55;8.70;99.90
67974;DHT22;54756;51.140;6.952;2024-03-07T12:19:58;8.80;99.90
67974;DHT22;54756;51.140;6.952;2024-03-07T12:22:03;8.80;99.90
67974;DHT22;54756;51.140;6.952;2024-03-07T12:24:13;8.80;99.90
67974;DHT22;54756;51.140;6.952;2024-03-07T12:26:20;8.80;99.90
67974;DHT22;54756;51.140;6.952;2024-03-07T12:28:21;8.80;99.90
67974;DHT22;54756;51.140;6.952;2024-03-07T12:30:24;8.90;99.90
67974;DHT22;54756;51.140;6.952;2024-03-07T12:32:27;8.90;99.90
67974;DHT22;54756;51.140;6.952;2024-03-07T12:34:28;8.90;99.90
67974;DHT22;54756;51.140;6.952;2024-03-07T12:36:32;9.00;99.90
67974;DHT22;54756;51.140;6.952;2024-03-07T12:38:45;9.00;99.90
67974;DHT22;54756;51.140;6.952;2024-03-07T12:40:46;9.10;99.90
67974;DHT22;54756;51.140;6.952;2024-03-07T12:42:48;9.10;99.90
67974;DHT22;54756;51.140;6.952;2024-03-07T12:44:50;9.10;99.90
67974;DHT22;54756;51.140;6.952;2024-03-07T12:46:54;9.20;99.90
67974;DHT22;54756;51.140;6.952;2024-03-07T12:48:56;9.20;99.90
67974;DHT22;54756;51.140;6.952;2024-03-07T12:50:58;9.20;99.90
67974;DHT22;54756;51.140;6.952;2024-03-07T12:52:59;9.30;99.90
67974;DHT22;54756;51.140;6.952;2024-03-07T12:55:00;9.30;99.90
67974;DHT22;54756;51.140;6.952;2024-03-07T12:57:01;9.30;99.90
67974;DHT22;54756;51.140;6.952;2024-03-07T12:59:05;9.30;99.90
67974;DHT22;54756;51.140;6.952;2024-03-07T13:01:09;9.30;99.90
67974;DHT22;54756;51.140;6.952;2024-03-07T13:03:10;9.30;99.90
67974;DHT22;54756;51.140;6.952;2024-03-07T13:05:11;9.30;99.90